Terminal Aerodrome Forecast
Issued by NWS

Current Version | Previous Version | Graphics & Text | Print | Product List | Glossary On
Versions: 1 2 3 4 5 6 7 8 9 10 11 12 13 14 15 16 17 18 19 20 21
000
FTUS41 KRLX 231100
TAFCKB
TAF
KCKB 231133Z 2312/2412 VRB03KT 6SM BR VCTS BKN060CB
      TEMPO 2312/2313 5SM -TSRA BKN045CB
     FM231400 23007KT P6SM BKN040
     FM231700 24007KT P6SM VCTS BKN040CB
     FM232000 27007KT 5SM TSRA BKN030CB
     FM232200 28006KT 3SM TSRA BR BKN024CB
     FM240100 32004KT 4SM -SHRA BR BKN020
     FM240400 31003KT 4SM BR BKN018
     FM240800 33005KT P6SM BKN024=

USA.gov is the U.S. government's official web portal to all federal, state and local government web resources and services.